sensor_id;sensor_type;location;lat;lon;timestamp;pressure;altitude;pressure_sealevel;temperature;humidity
44825;BME280;30542;47.928;2.138;2023-11-19T00:04:59;100519.09;;;20.06;56.74
44825;BME280;30542;47.928;2.138;2023-11-19T00:10:00;100515.63;;;20.05;56.54
44825;BME280;30542;47.928;2.138;2023-11-19T00:15:10;100509.47;;;20.05;56.46
44825;BME280;30542;47.928;2.138;2023-11-19T00:20:14;100520.97;;;20.05;56.70
44825;BME280;30542;47.928;2.138;2023-11-19T00:25:15;100523.13;;;20.03;56.54
44825;BME280;30542;47.928;2.138;2023-11-19T00:30:15;100509.44;;;20.00;56.65
44825;BME280;30542;47.928;2.138;2023-11-19T00:35:16;100497.41;;;20.02;56.76
44825;BME280;30542;47.928;2.138;2023-11-19T00:40:17;100509.97;;;20.02;57.03
44825;BME280;30542;47.928;2.138;2023-11-19T00:45:18;100486.72;;;20.02;56.71
44825;BME280;30542;47.928;2.138;2023-11-19T00:50:18;100490.19;;;20.03;56.58
44825;BME280;30542;47.928;2.138;2023-11-19T00:55:19;100495.53;;;20.03;56.68
44825;BME280;30542;47.928;2.138;2023-11-19T01:00:19;100516.13;;;20.02;56.58
44825;BME280;30542;47.928;2.138;2023-11-19T01:05:21;100524.69;;;19.99;56.65
44825;BME280;30542;47.928;2.138;2023-11-19T01:10:23;100522.03;;;19.99;56.58
44825;BME280;30542;47.928;2.138;2023-11-19T01:15:24;100522.03;;;19.99;56.97
44825;BME280;30542;47.928;2.138;2023-11-19T01:20:24;100524.94;;;19.98;56.66
44825;BME280;30542;47.928;2.138;2023-11-19T01:25:24;100537.50;;;19.97;56.90
44825;BME280;30542;47.928;2.138;2023-11-19T01:30:25;100541.25;;;19.96;56.86
44825;BME280;30542;47.928;2.138;2023-11-19T01:35:26;100534.03;;;19.97;56.63
44825;BME280;30542;47.928;2.138;2023-11-19T01:40:26;100540.16;;;19.92;56.89
44825;BME280;30542;47.928;2.138;2023-11-19T01:45:28;100545.00;;;19.95;56.92
44825;BME280;30542;47.928;2.138;2023-11-19T01:50:30;100535.91;;;19.96;56.68
44825;BME280;30542;47.928;2.138;2023-11-19T01:55:30;100532.41;;;19.91;56.78
44825;BME280;30542;47.928;2.138;2023-11-19T02:00:31;100547.09;;;19.93;56.79
44825;BME280;30542;47.928;2.138;2023-11-19T02:05:35;100564.22;;;19.92;56.92
44825;BME280;30542;47.928;2.138;2023-11-19T02:10:35;100548.97;;;19.93;56.74
44825;BME280;30542;47.928;2.138;2023-11-19T02:15:36;100542.81;;;19.92;56.85
44825;BME280;30542;47.928;2.138;2023-11-19T02:20:36;100526.78;;;19.92;56.91
44825;BME280;30542;47.928;2.138;2023-11-19T02:25:37;100504.81;;;19.85;56.77
44825;BME280;30542;47.928;2.138;2023-11-19T02:30:38;100514.72;;;19.90;57.11
44825;BME280;30542;47.928;2.138;2023-11-19T02:35:38;100514.47;;;19.91;56.81
44825;BME280;30542;47.928;2.138;2023-11-19T02:40:40;100525.19;;;19.91;56.92
44825;BME280;30542;47.928;2.138;2023-11-19T02:45:41;100510.16;;;19.85;57.05
44825;BME280;30542;47.928;2.138;2023-11-19T02:50:42;100520.06;;;19.90;57.00
44825;BME280;30542;47.928;2.138;2023-11-19T02:55:42;100520.84;;;19.85;56.85
44825;BME280;30542;47.928;2.138;2023-11-19T03:00:48;100527.28;;;19.89;56.68
44825;BME280;30542;47.928;2.138;2023-11-19T03:05:54;100533.44;;;19.90;56.90
44825;BME280;30542;47.928;2.138;2023-11-19T03:10:55;100520.59;;;19.86;56.92
44825;BME280;30542;47.928;2.138;2023-11-19T03:15:55;100525.69;;;19.88;56.74
44825;BME280;30542;47.928;2.138;2023-11-19T03:20:55;100516.06;;;19.87;57.02
44825;BME280;30542;47.928;2.138;2023-11-19T03:25:57;100514.19;;;19.88;56.12
44825;BME280;30542;47.928;2.138;2023-11-19T03:30:58;100507.78;;;19.89;56.77
44825;BME280;30542;47.928;2.138;2023-11-19T03:35:58;100504.31;;;19.88;56.75
44825;BME280;30542;47.928;2.138;2023-11-19T03:40:59;100498.97;;;19.88;56.76
44825;BME280;30542;47.928;2.138;2023-11-19T03:45:59;100495.72;;;19.86;56.97
44825;BME280;30542;47.928;2.138;2023-11-19T03:50:59;100493.03;;;19.86;56.92
44825;BME280;30542;47.928;2.138;2023-11-19T03:55:59;100488.53;;;19.86;56.83
44825;BME280;30542;47.928;2.138;2023-11-19T04:01:00;100487.69;;;19.86;56.91
44825;BME280;30542;47.928;2.138;2023-11-19T04:06:00;100481.81;;;19.84;56.92
44825;BME280;30542;47.928;2.138;2023-11-19T04:11:03;100474.88;;;19.83;56.87
44825;BME280;30542;47.928;2.138;2023-11-19T04:16:04;100494.13;;;19.85;56.54
44825;BME280;30542;47.928;2.138;2023-11-19T04:21:07;100478.31;;;19.78;56.69
44825;BME280;30542;47.928;2.138;2023-11-19T04:26:08;100506.94;;;19.83;56.78
44825;BME280;30542;47.928;2.138;2023-11-19T04:31:08;100502.66;;;19.82;56.87
44825;BME280;30542;47.928;2.138;2023-11-19T04:36:10;100490.31;;;19.76;56.95
44825;BME280;30542;47.928;2.138;2023-11-19T04:41:11;100499.72;;;19.83;56.62
44825;BME280;30542;47.928;2.138;2023-11-19T04:46:12;100491.94;;;19.82;56.85
44825;BME280;30542;47.928;2.138;2023-11-19T04:51:12;100501.00;;;19.76;56.86
44825;BME280;30542;47.928;2.138;2023-11-19T04:56:12;100504.50;;;19.81;57.02
44825;BME280;30542;47.928;2.138;2023-11-19T05:01:14;100518.16;;;19.80;57.16
44825;BME280;30542;47.928;2.138;2023-11-19T05:06:17;100480.63;;;19.65;56.85
44825;BME280;30542;47.928;2.138;2023-11-19T05:11:18;100502.63;;;19.77;56.83
44825;BME280;30542;47.928;2.138;2023-11-19T05:16:19;100502.63;;;19.77;56.96
44825;BME280;30542;47.928;2.138;2023-11-19T05:21:21;100512.50;;;19.76;57.07
44825;BME280;30542;47.928;2.138;2023-11-19T05:26:22;100502.88;;;19.75;57.18
44825;BME280;30542;47.928;2.138;2023-11-19T05:31:23;100486.84;;;19.75;57.29
44825;BME280;30542;47.928;2.138;2023-11-19T05:36:23;100494.06;;;19.75;56.93
44825;BME280;30542;47.928;2.138;2023-11-19T05:41:23;100492.44;;;19.74;56.82
44825;BME280;30542;47.928;2.138;2023-11-19T05:46:24;100503.94;;;19.74;57.03
44825;BME280;30542;47.928;2.138;2023-11-19T05:51:27;100507.66;;;19.73;57.14
44825;BME280;30542;47.928;2.138;2023-11-19T05:56:27;100491.91;;;19.72;57.00
44825;BME280;30542;47.928;2.138;2023-11-19T06:01:35;100504.47;;;19.71;57.01
44825;BME280;30542;47.928;2.138;2023-11-19T06:06:36;100512.47;;;19.71;56.97
44825;BME280;30542;47.928;2.138;2023-11-19T06:11:37;100500.19;;;19.70;56.95
44825;BME280;30542;47.928;2.138;2023-11-19T06:16:37;100510.59;;;19.72;57.20
44825;BME280;30542;47.928;2.138;2023-11-19T06:21:40;100499.13;;;19.71;57.15
44825;BME280;30542;47.928;2.138;2023-11-19T06:26:40;100508.19;;;19.70;56.94
44825;BME280;30542;47.928;2.138;2023-11-19T06:31:40;100516.47;;;19.69;57.11
44825;BME280;30542;47.928;2.138;2023-11-19T06:36:41;100515.66;;;19.68;56.89
44825;BME280;30542;47.928;2.138;2023-11-19T06:41:47;100485.84;;;19.49;57.01
44825;BME280;30542;47.928;2.138;2023-11-19T06:46:48;100521.88;;;19.79;57.09
44825;BME280;30542;47.928;2.138;2023-11-19T06:51:48;100523.28;;;19.86;57.17
44825;BME280;30542;47.928;2.138;2023-11-19T06:56:49;100507.00;;;19.93;57.09
44825;BME280;30542;47.928;2.138;2023-11-19T07:01:49;100515.84;;;19.99;56.81
44825;BME280;30542;47.928;2.138;2023-11-19T07:06:49;100514.81;;;20.05;56.99
44825;BME280;30542;47.928;2.138;2023-11-19T07:11:50;100523.13;;;20.08;56.82
44825;BME280;30542;47.928;2.138;2023-11-19T07:16:53;100530.66;;;20.11;56.62
44825;BME280;30542;47.928;2.138;2023-11-19T07:21:55;100539.22;;;20.19;56.16
44825;BME280;30542;47.928;2.138;2023-11-19T07:26:56;100545.16;;;20.26;56.70
44825;BME280;30542;47.928;2.138;2023-11-19T07:31:56;100560.41;;;20.30;56.25
44825;BME280;30542;47.928;2.138;2023-11-19T07:36:57;100543.06;;;20.33;56.16
44825;BME280;30542;47.928;2.138;2023-11-19T07:41:59;100561.00;;;20.38;56.22
44825;BME280;30542;47.928;2.138;2023-11-19T07:47:00;100556.19;;;20.40;55.96
44825;BME280;30542;47.928;2.138;2023-11-19T07:52:00;100565.00;;;20.40;56.15
44825;BME280;30542;47.928;2.138;2023-11-19T07:57:01;100561.81;;;20.43;55.97
44825;BME280;30542;47.928;2.138;2023-11-19T08:02:01;100579.75;;;20.43;56.47
44825;BME280;30542;47.928;2.138;2023-11-19T08:07:02;100588.63;;;20.48;56.78
44825;BME280;30542;47.928;2.138;2023-11-19T08:12:03;100607.41;;;20.53;56.91
44825;BME280;30542;47.928;2.138;2023-11-19T08:17:03;100609.81;;;20.60;57.26
44825;BME280;30542;47.928;2.138;2023-11-19T08:22:04;100618.72;;;20.71;57.42
44825;BME280;30542;47.928;2.138;2023-11-19T08:27:04;100610.47;;;20.82;57.94
44825;BME280;30542;47.928;2.138;2023-11-19T08:32:05;100616.13;;;20.91;57.50
44825;BME280;30542;47.928;2.138;2023-11-19T08:37:06;100626.56;;;20.98;56.17
44825;BME280;30542;47.928;2.138;2023-11-19T08:42:06;100633.56;;;20.99;55.79
44825;BME280;30542;47.928;2.138;2023-11-19T08:47:07;100633.78;;;20.97;55.53
44825;BME280;30542;47.928;2.138;2023-11-19T08:52:07;100644.50;;;20.97;55.26
44825;BME280;30542;47.928;2.138;2023-11-19T08:57:08;100654.16;;;20.98;55.09
44825;BME280;30542;47.928;2.138;2023-11-19T09:02:09;100652.31;;;20.99;54.77
44825;BME280;30542;47.928;2.138;2023-11-19T09:07:09;100637.03;;;20.99;54.79
44825;BME280;30542;47.928;2.138;2023-11-19T09:12:09;100636.50;;;21.02;54.60
44825;BME280;30542;47.928;2.138;2023-11-19T09:17:10;100641.31;;;21.05;54.55
44825;BME280;30542;47.928;2.138;2023-11-19T09:22:10;100634.66;;;21.08;54.69
44825;BME280;30542;47.928;2.138;2023-11-19T09:27:10;100639.22;;;21.07;54.31
44825;BME280;30542;47.928;2.138;2023-11-19T09:32:11;100632.22;;;21.06;54.56
44825;BME280;30542;47.928;2.138;2023-11-19T09:37:11;100633.84;;;21.07;54.68
44825;BME280;30542;47.928;2.138;2023-11-19T09:42:12;100631.69;;;21.09;55.29
44825;BME280;30542;47.928;2.138;2023-11-19T09:47:14;100637.34;;;21.13;55.48
44825;BME280;30542;47.928;2.138;2023-11-19T09:52:14;100631.75;;;21.20;55.32
44825;BME280;30542;47.928;2.138;2023-11-19T09:57:16;100636.56;;;21.23;55.29
44825;BME280;30542;47.928;2.138;2023-11-19T10:02:18;100642.47;;;21.30;55.21
44825;BME280;30542;47.928;2.138;2023-11-19T10:07:18;100637.44;;;21.39;55.00
44825;BME280;30542;47.928;2.138;2023-11-19T10:12:18;100621.34;;;21.44;54.84
44825;BME280;30542;47.928;2.138;2023-11-19T10:17:19;100646.56;;;21.53;55.04
44825;BME280;30542;47.928;2.138;2023-11-19T10:22:19;100650.88;;;21.59;55.67
44825;BME280;30542;47.928;2.138;2023-11-19T10:27:19;100654.34;;;21.65;56.02
44825;BME280;30542;47.928;2.138;2023-11-19T10:32:20;100657.56;;;21.67;55.02
44825;BME280;30542;47.928;2.138;2023-11-19T10:37:29;100643.09;;;21.68;54.04
44825;BME280;30542;47.928;2.138;2023-11-19T10:42:32;100640.97;;;21.70;53.45
44825;BME280;30542;47.928;2.138;2023-11-19T10:47:33;100639.88;;;21.71;53.13
44825;BME280;30542;47.928;2.138;2023-11-19T10:52:35;100636.94;;;21.72;52.86
44825;BME280;30542;47.928;2.138;2023-11-19T10:57:36;100624.88;;;21.70;52.30
44825;BME280;30542;47.928;2.138;2023-11-19T11:02:41;100621.66;;;21.68;51.55
44825;BME280;30542;47.928;2.138;2023-11-19T11:07:45;100625.94;;;21.69;51.32
44825;BME280;30542;47.928;2.138;2023-11-19T11:12:45;100621.13;;;21.71;51.50
44825;BME280;30542;47.928;2.138;2023-11-19T11:17:47;100608.25;;;21.73;51.67
44825;BME280;30542;47.928;2.138;2023-11-19T11:23:03;100616.28;;;21.73;51.74
44825;BME280;30542;47.928;2.138;2023-11-19T11:28:21;100606.91;;;21.75;51.81
44825;BME280;30542;47.928;2.138;2023-11-19T11:33:35;100609.88;;;21.74;52.14
44825;BME280;30542;47.928;2.138;2023-11-19T11:38:40;100606.09;;;21.75;52.36
44825;BME280;30542;47.928;2.138;2023-11-19T11:43:51;100609.31;;;21.77;52.57
44825;BME280;30542;47.928;2.138;2023-11-19T11:48:52;100606.91;;;21.75;52.75
44825;BME280;30542;47.928;2.138;2023-11-19T11:53:54;100591.63;;;21.76;52.77
44825;BME280;30542;47.928;2.138;2023-11-19T11:58:59;100584.66;;;21.75;53.11
44825;BME280;30542;47.928;2.138;2023-11-19T12:04:03;100582.78;;;21.75;53.36
44825;BME280;30542;47.928;2.138;2023-11-19T12:09:05;100573.94;;;21.75;53.52
44825;BME280;30542;47.928;2.138;2023-11-19T12:14:07;100578.47;;;21.79;53.61
44825;BME280;30542;47.928;2.138;2023-11-19T12:19:08;100575.00;;;21.79;53.61
44825;BME280;30542;47.928;2.138;2023-11-19T12:24:10;100567.25;;;21.77;53.78
44825;BME280;30542;47.928;2.138;2023-11-19T12:29:11;100548.19;;;21.79;54.06
44825;BME280;30542;47.928;2.138;2023-11-19T12:34:11;100549.28;;;21.78;54.14
44825;BME280;30542;47.928;2.138;2023-11-19T12:39:12;100545.50;;;21.79;54.15
44825;BME280;30542;47.928;2.138;2023-11-19T12:44:13;100553.03;;;21.82;53.99
44825;BME280;30542;47.928;2.138;2023-11-19T12:49:13;100543.34;;;21.81;53.93
44825;BME280;30542;47.928;2.138;2023-11-19T12:54:14;100544.44;;;21.80;54.09
44825;BME280;30542;47.928;2.138;2023-11-19T12:59:14;100546.59;;;21.78;54.01
44825;BME280;30542;47.928;2.138;2023-11-19T13:04:18;100557.56;;;21.76;53.89
44825;BME280;30542;47.928;2.138;2023-11-19T13:09:28;100560.25;;;21.76;54.03
44825;BME280;30542;47.928;2.138;2023-11-19T13:14:38;100557.56;;;21.71;53.86
44825;BME280;30542;47.928;2.138;2023-11-19T13:19:38;100561.34;;;21.70;53.86
44825;BME280;30542;47.928;2.138;2023-11-19T13:24:38;100556.50;;;21.67;54.09
44825;BME280;30542;47.928;2.138;2023-11-19T13:29:40;100557.03;;;21.64;54.26
44825;BME280;30542;47.928;2.138;2023-11-19T13:34:40;100552.47;;;21.65;54.25
44825;BME280;30542;47.928;2.138;2023-11-19T13:39:44;100553.56;;;21.64;54.08
44825;BME280;30542;47.928;2.138;2023-11-19T13:44:44;100552.25;;;21.61;54.15
44825;BME280;30542;47.928;2.138;2023-11-19T13:49:45;100543.66;;;21.59;54.24
44825;BME280;30542;47.928;2.138;2023-11-19T13:54:45;100544.97;;;21.51;54.21
44825;BME280;30542;47.928;2.138;2023-11-19T13:59:45;100530.50;;;21.47;54.25
44825;BME280;30542;47.928;2.138;2023-11-19T14:04:45;100534.28;;;21.46;54.25
44825;BME280;30542;47.928;2.138;2023-11-19T14:09:46;100536.16;;;21.46;54.38
44825;BME280;30542;47.928;2.138;2023-11-19T14:14:46;100525.16;;;21.42;54.64
44825;BME280;30542;47.928;2.138;2023-11-19T14:19:47;100530.00;;;21.40;54.28
44825;BME280;30542;47.928;2.138;2023-11-19T14:24:47;100508.28;;;21.37;54.37
44825;BME280;30542;47.928;2.138;2023-11-19T14:29:48;100512.28;;;21.34;54.46
44825;BME280;30542;47.928;2.138;2023-11-19T14:34:48;100512.78;;;21.31;54.44
44825;BME280;30542;47.928;2.138;2023-11-19T14:39:48;100526.47;;;21.29;54.40
44825;BME280;30542;47.928;2.138;2023-11-19T14:44:51;100513.59;;;21.26;54.29
44825;BME280;30542;47.928;2.138;2023-11-19T14:49:55;100509.59;;;21.24;54.34
44825;BME280;30542;47.928;2.138;2023-11-19T14:54:55;100509.84;;;21.22;54.35
44825;BME280;30542;47.928;2.138;2023-11-19T14:59:56;100507.97;;;21.18;54.18
44825;BME280;30542;47.928;2.138;2023-11-19T15:04:57;100506.38;;;21.12;54.32
44825;BME280;30542;47.928;2.138;2023-11-19T15:09:57;100513.59;;;21.16;54.37
44825;BME280;30542;47.928;2.138;2023-11-19T15:14:57;100502.63;;;21.13;54.16
44825;BME280;30542;47.928;2.138;2023-11-19T15:19:57;100513.31;;;21.13;54.12
44825;BME280;30542;47.928;2.138;2023-11-19T15:24:58;100511.72;;;21.12;54.07
44825;BME280;30542;47.928;2.138;2023-11-19T15:29:58;100529.69;;;21.11;54.10
44825;BME280;30542;47.928;2.138;2023-11-19T15:34:59;100526.72;;;21.07;54.12
44825;BME280;30542;47.928;2.138;2023-11-19T15:39:59;100527.78;;;21.06;54.24
44825;BME280;30542;47.928;2.138;2023-11-19T15:45:00;100517.56;;;20.98;54.30
44825;BME280;30542;47.928;2.138;2023-11-19T15:50:01;100539.28;;;21.02;54.41
44825;BME280;30542;47.928;2.138;2023-11-19T15:55:01;100537.69;;;21.01;54.43
44825;BME280;30542;47.928;2.138;2023-11-19T16:00:02;100540.34;;;20.96;54.35
44825;BME280;30542;47.928;2.138;2023-11-19T16:05:02;100544.34;;;20.98;54.39
44825;BME280;30542;47.928;2.138;2023-11-19T16:10:05;100551.88;;;20.96;54.49
44825;BME280;30542;47.928;2.138;2023-11-19T16:15:09;100554.81;;;20.95;54.55
44825;BME280;30542;47.928;2.138;2023-11-19T16:20:10;100540.88;;;20.93;54.57
44825;BME280;30542;47.928;2.138;2023-11-19T16:25:10;100545.72;;;20.91;54.75
44825;BME280;30542;47.928;2.138;2023-11-19T16:30:12;100528.50;;;20.76;54.71
44825;BME280;30542;47.928;2.138;2023-11-19T16:35:13;100554.25;;;20.82;55.21
44825;BME280;30542;47.928;2.138;2023-11-19T16:40:13;100550.50;;;20.78;55.61
44825;BME280;30542;47.928;2.138;2023-11-19T16:45:14;100572.94;;;20.72;56.01
44825;BME280;30542;47.928;2.138;2023-11-19T16:50:14;100570.56;;;20.81;56.10
44825;BME280;30542;47.928;2.138;2023-11-19T16:55:16;100561.47;;;20.82;56.22
44825;BME280;30542;47.928;2.138;2023-11-19T17:00:18;100577.28;;;20.89;56.60
44825;BME280;30542;47.928;2.138;2023-11-19T17:05:19;100573.81;;;20.98;56.34
44825;BME280;30542;47.928;2.138;2023-11-19T17:10:23;100565.25;;;21.01;56.09
44825;BME280;30542;47.928;2.138;2023-11-19T17:15:24;100566.34;;;21.00;55.92
44825;BME280;30542;47.928;2.138;2023-11-19T17:20:24;100579.44;;;21.02;56.06
44825;BME280;30542;47.928;2.138;2023-11-19T17:25:25;100593.13;;;21.05;56.06
44825;BME280;30542;47.928;2.138;2023-11-19T17:30:25;100599.28;;;21.06;56.15
44825;BME280;30542;47.928;2.138;2023-11-19T17:35:25;100602.50;;;21.08;55.87
44825;BME280;30542;47.928;2.138;2023-11-19T17:40:26;100607.06;;;21.13;55.72
44825;BME280;30542;47.928;2.138;2023-11-19T17:45:26;100605.72;;;21.10;55.61
44825;BME280;30542;47.928;2.138;2023-11-19T17:50:27;100598.25;;;21.17;55.33
44825;BME280;30542;47.928;2.138;2023-11-19T17:55:28;100600.13;;;21.22;55.56
44825;BME280;30542;47.928;2.138;2023-11-19T18:00:29;100584.56;;;21.14;55.51
44825;BME280;30542;47.928;2.138;2023-11-19T18:05:29;100603.88;;;21.16;55.64
44825;BME280;30542;47.928;2.138;2023-11-19T18:10:30;100603.88;;;21.16;55.89
44825;BME280;30542;47.928;2.138;2023-11-19T18:15:30;100616.19;;;21.17;55.76
44825;BME280;30542;47.928;2.138;2023-11-19T18:20:30;100622.63;;;21.21;55.81
44825;BME280;30542;47.928;2.138;2023-11-19T18:25:31;100623.72;;;21.20;55.86
44825;BME280;30542;47.928;2.138;2023-11-19T18:30:32;100629.31;;;21.18;55.67
44825;BME280;30542;47.928;2.138;2023-11-19T18:35:33;100618.59;;;21.13;55.44
44825;BME280;30542;47.928;2.138;2023-11-19T18:40:33;100632.25;;;21.17;55.39
44825;BME280;30542;47.928;2.138;2023-11-19T18:45:33;100626.63;;;21.13;55.29
44825;BME280;30542;47.928;2.138;2023-11-19T18:50:34;100622.59;;;21.10;55.18
44825;BME280;30542;47.928;2.138;2023-11-19T18:55:35;100616.16;;;21.06;55.35
44825;BME280;30542;47.928;2.138;2023-11-19T19:00:36;100635.97;;;21.05;55.22
44825;BME280;30542;47.928;2.138;2023-11-19T19:05:36;100622.84;;;21.04;55.29
44825;BME280;30542;47.928;2.138;2023-11-19T19:10:36;100637.31;;;21.03;55.24
44825;BME280;30542;47.928;2.138;2023-11-19T19:15:37;100636.50;;;21.02;55.05
44825;BME280;30542;47.928;2.138;2023-11-19T19:20:38;100641.31;;;21.00;55.07
44825;BME280;30542;47.928;2.138;2023-11-19T19:25:38;100642.41;;;20.99;55.22
44825;BME280;30542;47.928;2.138;2023-11-19T19:30:39;100647.19;;;20.97;55.06
44825;BME280;30542;47.928;2.138;2023-11-19T19:35:39;100650.13;;;20.96;55.25
44825;BME280;30542;47.928;2.138;2023-11-19T19:40:39;100636.97;;;20.89;55.13
44825;BME280;30542;47.928;2.138;2023-11-19T19:45:39;100652.00;;;20.90;55.14
44825;BME280;30542;47.928;2.138;2023-11-19T19:50:40;100650.91;;;20.86;55.30
44825;BME280;30542;47.928;2.138;2023-11-19T19:55:40;100649.56;;;20.83;55.16
44825;BME280;30542;47.928;2.138;2023-11-19T20:00:41;100656.78;;;20.83;55.16
44825;BME280;30542;47.928;2.138;2023-11-19T20:05:41;100662.13;;;20.83;55.23
44825;BME280;30542;47.928;2.138;2023-11-19T20:10:41;100667.50;;;20.83;55.00
44825;BME280;30542;47.928;2.138;2023-11-19T20:15:42;100663.72;;;20.79;55.09
44825;BME280;30542;47.928;2.138;2023-11-19T20:20:42;100660.50;;;20.77;55.15
44825;BME280;30542;47.928;2.138;2023-11-19T20:25:44;100665.84;;;20.77;54.92
44825;BME280;30542;47.928;2.138;2023-11-19T20:30:44;100662.13;;;20.78;54.96
44825;BME280;30542;47.928;2.138;2023-11-19T20:35:45;100661.03;;;20.74;55.03
44825;BME280;30542;47.928;2.138;2023-11-19T20:40:45;100656.19;;;20.71;54.74
44825;BME280;30542;47.928;2.138;2023-11-19T20:45:46;100672.75;;;20.68;55.19
44825;BME280;30542;47.928;2.138;2023-11-19T20:50:46;100674.38;;;20.69;55.12
44825;BME280;30542;47.928;2.138;2023-11-19T20:55:46;100675.72;;;20.66;54.96
44825;BME280;30542;47.928;2.138;2023-11-19T21:00:47;100681.88;;;20.67;55.04
44825;BME280;30542;47.928;2.138;2023-11-19T21:05:47;100681.06;;;20.66;55.02
44825;BME280;30542;47.928;2.138;2023-11-19T21:10:54;100672.75;;;20.63;55.09
44825;BME280;30542;47.928;2.138;2023-11-19T21:15:54;100670.56;;;20.59;54.95
44825;BME280;30542;47.928;2.138;2023-11-19T21:20:55;100674.84;;;20.60;55.18
44825;BME280;30542;47.928;2.138;2023-11-19T21:25:58;100673.53;;;20.63;54.97
44825;BME280;30542;47.928;2.138;2023-11-19T21:31:00;100675.41;;;20.63;54.86
44825;BME280;30542;47.928;2.138;2023-11-19T21:36:01;100671.63;;;20.58;54.76
44825;BME280;30542;47.928;2.138;2023-11-19T21:41:01;100666.03;;;20.60;54.82
44825;BME280;30542;47.928;2.138;2023-11-19T21:46:02;100667.38;;;20.57;54.84
44825;BME280;30542;47.928;2.138;2023-11-19T21:51:05;100674.81;;;20.55;54.91
44825;BME280;30542;47.928;2.138;2023-11-19T21:56:06;100676.44;;;20.56;54.84
44825;BME280;30542;47.928;2.138;2023-11-19T22:01:06;100685.53;;;20.55;54.95
44825;BME280;30542;47.928;2.138;2023-11-19T22:06:07;100681.75;;;20.51;54.77
44825;BME280;30542;47.928;2.138;2023-11-19T22:11:07;100701.06;;;20.53;54.80
44825;BME280;30542;47.928;2.138;2023-11-19T22:16:08;100693.25;;;20.52;54.83
44825;BME280;30542;47.928;2.138;2023-11-19T22:21:08;100689.78;;;20.51;54.80
44825;BME280;30542;47.928;2.138;2023-11-19T22:26:08;100683.81;;;20.44;54.91
44825;BME280;30542;47.928;2.138;2023-11-19T22:31:09;100691.94;;;20.49;54.85
44825;BME280;30542;47.928;2.138;2023-11-19T22:36:09;100680.63;;;20.47;54.86
44825;BME280;30542;47.928;2.138;2023-11-19T22:41:10;100676.06;;;20.43;54.81
44825;BME280;30542;47.928;2.138;2023-11-19T22:46:10;100680.91;;;20.46;54.95
44825;BME280;30542;47.928;2.138;2023-11-19T22:51:12;100675.00;;;20.44;54.96
44825;BME280;30542;47.928;2.138;2023-11-19T22:56:14;100681.13;;;20.44;54.86
44825;BME280;30542;47.928;2.138;2023-11-19T23:01:17;100683.00;;;20.44;54.96
44825;BME280;30542;47.928;2.138;2023-11-19T23:06:17;100672.31;;;20.44;54.99
44825;BME280;30542;47.928;2.138;2023-11-19T23:11:19;100682.22;;;20.43;54.83
44825;BME280;30542;47.928;2.138;2023-11-19T23:16:19;100683.56;;;20.41;55.02
44825;BME280;30542;47.928;2.138;2023-11-19T23:21:23;100673.56;;;20.31;54.96
44825;BME280;30542;47.928;2.138;2023-11-19T23:26:23;100681.63;;;20.36;55.03
44825;BME280;30542;47.928;2.138;2023-11-19T23:31:23;100676.81;;;20.33;55.02
44825;BME280;30542;47.928;2.138;2023-11-19T23:36:24;100686.44;;;20.34;54.87
44825;BME280;30542;47.928;2.138;2023-11-19T23:41:24;100688.31;;;20.33;55.02
44825;BME280;30542;47.928;2.138;2023-11-19T23:46:24;100689.13;;;20.34;54.95
44825;BME280;30542;47.928;2.138;2023-11-19T23:51:26;100692.84;;;20.33;54.96
44825;BME280;30542;47.928;2.138;2023-11-19T23:56:26;100673.84;;;20.29;54.89
